Time;durP1;ratioP1;P1;durP2;ratioP2;P2;SDS_P1;SDS_P2;PMS_P1;PMS_P2;Temp;Humidity;BMP_temperature;BMP_pressure;BME280_temperature;BME280_humidity;BME280_pressure;Samples;Min_cycle;Max_cycle;Signal;HPM_P1;HPM_P2
2022/04/09 00:02:13;;;;;;;3.07;1.70;;;5.10;88.70;;;;;;5091270;28;20281;-76
2022/04/09 00:04:39;;;;;;;3.83;1.70;;;5.20;84.70;;;;;;5090833;28;20183;-77
2022/04/09 00:07:05;;;;;;;4.77;1.70;;;5.70;73.40;;;;;;5091398;28;20728;-74
2022/04/09 00:09:30;;;;;;;2.97;1.63;;;5.00;78.50;;;;;;5092491;28;20166;-75
2022/04/09 00:11:56;;;;;;;3.37;1.83;;;4.90;86.10;;;;;;5093626;28;20204;-75
2022/04/09 00:14:22;;;;;;;2.90;1.70;;;4.90;84.40;;;;;;5091325;28;20252;-76
2022/04/09 00:16:47;;;;;;;3.00;1.90;;;4.90;85.10;;;;;;5073250;28;20190;-75
2022/04/09 00:19:13;;;;;;;3.37;1.80;;;5.30;77.40;;;;;;5091405;28;20175;-75
2022/04/09 00:21:39;;;;;;;2.57;1.60;;;4.70;80.50;;;;;;5090834;28;20249;-75
2022/04/09 00:24:05;;;;;;;2.72;1.67;;;4.50;81.90;;;;;;5091254;28;20167;-75
2022/04/09 00:26:31;;;;;;;2.50;1.60;;;4.20;86.40;;;;;;5092631;28;20178;-75
2022/04/09 00:28:56;;;;;;;2.33;1.50;;;4.70;85.50;;;;;;5095393;28;20624;-75
2022/04/09 00:31:22;;;;;;;2.10;1.50;;;4.70;81.30;;;;;;5095051;28;20205;-76
2022/04/09 00:33:48;;;;;;;2.23;1.50;;;4.40;82.90;;;;;;5095231;28;20626;-75
2022/04/09 00:36:13;;;;;;;5.40;1.70;;;4.40;84.20;;;;;;5094779;28;20210;-75
2022/04/09 00:38:39;;;;;;;2.33;1.60;;;4.60;81.90;;;;;;5094909;28;20175;-75
2022/04/09 00:41:08;;;;;;;2.43;1.40;;;4.50;84.20;;;;;;5094468;28;20563;-75
2022/04/09 00:43:37;;;;;;;2.00;1.50;;;4.50;84.70;;;;;;5094920;28;20701;-75
2022/04/09 00:46:03;;;;;;;2.20;1.60;;;4.20;86.40;;;;;;5109789;28;20182;-75
2022/04/09 00:48:28;;;;;;;2.20;1.60;;;4.30;86.20;;;;;;5095034;28;20705;-76
2022/04/09 00:50:54;;;;;;;2.47;1.80;;;4.10;89.10;;;;;;5094670;28;20169;-74
2022/04/09 00:53:21;;;;;;;2.33;1.70;;;4.50;89.80;;;;;;5094864;28;20277;-75
2022/04/09 00:58:34;;;;;;;2.20;1.60;;;4.40;90.30;;;;;;5094955;28;20197;-74
2022/04/09 01:01:00;;;;;;;2.10;1.60;;;4.40;86.00;;;;;;5094633;28;20227;-76
2022/04/09 01:03:28;;;;;;;2.63;1.60;;;4.40;88.60;;;;;;5095390;28;20170;-76
2022/04/09 01:05:54;;;;;;;2.20;1.58;;;4.60;85.20;;;;;;5094808;28;20626;-76
2022/04/09 01:08:20;;;;;;;2.80;1.80;;;4.80;85.60;;;;;;5095034;28;20214;-76
2022/04/09 01:10:47;;;;;;;2.60;1.93;;;5.10;81.50;;;;;;5094287;28;20554;-75
2022/04/09 01:13:14;;;;;;;2.35;1.75;;;4.50;88.80;;;;;;5094398;28;20178;-74
2022/04/09 01:15:40;;;;;;;3.70;1.83;;;4.20;90.30;;;;;;5094479;28;20178;-75
2022/04/09 01:18:05;;;;;;;3.03;2.03;;;4.20;90.50;;;;;;5094225;28;20187;-75
2022/04/09 01:20:31;;;;;;;2.20;1.70;;;4.50;89.80;;;;;;5094534;28;20173;-74
2022/04/09 01:22:57;;;;;;;2.40;1.80;;;4.40;87.00;;;;;;5093491;28;20210;-75
2022/04/09 01:25:22;;;;;;;3.30;2.00;;;4.30;91.40;;;;;;5094342;28;20314;-76
2022/04/09 01:27:49;;;;;;;2.30;1.90;;;4.30;89.40;;;;;;5093975;28;20216;-75
2022/04/09 01:30:18;;;;;;;2.60;2.00;;;4.50;90.50;;;;;;5093846;28;20179;-76
2022/04/09 01:32:45;;;;;;;2.53;1.73;;;4.30;88.60;;;;;;5093234;28;20683;-74
2022/04/09 01:35:10;;;;;;;4.15;2.40;;;4.10;91.50;;;;;;5091817;28;20246;-73
2022/04/09 01:37:36;;;;;;;2.47;1.90;;;4.20;91.30;;;;;;5092465;28;20293;-75
2022/04/09 01:40:02;;;;;;;2.60;2.17;;;4.70;84.80;;;;;;5092308;28;20428;-75
2022/04/09 01:42:28;;;;;;;2.70;2.10;;;4.50;85.40;;;;;;5093022;28;20463;-76
2022/04/09 01:44:54;;;;;;;3.60;2.00;;;4.30;87.00;;;;;;5073704;28;20449;-75
2022/04/09 01:47:19;;;;;;;2.40;2.00;;;4.20;88.60;;;;;;5091781;28;20210;-76
2022/04/09 01:49:45;;;;;;;3.03;2.37;;;4.60;84.90;;;;;;5092713;28;20416;-74
2022/04/09 01:52:10;;;;;;;2.70;2.10;;;4.40;85.70;;;;;;5092894;28;20758;-75
2022/04/09 01:54:36;;;;;;;2.77;2.10;;;4.40;83.90;;;;;;5093270;28;20181;-75
2022/04/09 01:57:02;;;;;;;2.50;2.00;;;4.40;86.00;;;;;;5093294;28;20182;-75
2022/04/09 01:59:28;;;;;;;3.00;2.40;;;4.80;82.20;;;;;;5075243;28;20217;-75
2022/04/09 02:01:53;;;;;;;2.73;2.30;;;4.60;81.90;;;;;;5092735;28;20453;-74
2022/04/09 02:04:20;;;;;;;2.77;2.10;;;4.50;81.60;;;;;;5093136;28;20239;-75
2022/04/09 02:06:46;;;;;;;3.60;2.50;;;4.80;82.80;;;;;;5093001;28;20248;-74
2022/04/09 02:09:12;;;;;;;3.07;2.50;;;4.90;78.80;;;;;;5092996;28;20534;-74
2022/04/09 02:11:43;;;;;;;3.87;2.80;;;5.10;75.50;;;;;;5092776;28;20194;-74
2022/04/09 02:14:10;;;;;;;3.75;2.70;;;5.10;74.50;;;;;;5093019;28;20617;-73
2022/04/09 02:16:36;;;;;;;3.40;2.75;;;5.10;74.60;;;;;;5093185;28;20170;-75
2022/04/09 02:19:02;;;;;;;3.35;2.63;;;5.30;74.70;;;;;;5092953;28;20173;-75
2022/04/09 02:21:28;;;;;;;5.50;3.10;;;5.30;73.50;;;;;;5092042;28;20244;-74
2022/04/09 02:23:54;;;;;;;4.37;3.17;;;5.50;71.30;;;;;;5092730;28;20417;-75
2022/04/09 02:26:19;;;;;;;3.40;2.80;;;5.50;70.90;;;;;;5092592;28;20425;-74
2022/04/09 02:28:49;;;;;;;5.87;3.20;;;5.90;68.50;;;;;;5092754;28;20238;-75
2022/04/09 02:31:18;;;;;;;6.13;3.13;;;5.80;67.10;;;;;;5092678;28;20183;-74
2022/04/09 02:33:45;;;;;;;6.82;3.30;;;5.80;68.80;;;;;;5092270;28;20621;-74
2022/04/09 02:36:12;;;;;;;5.87;3.43;;;6.00;67.10;;;;;;5092282;28;20179;-75
2022/04/09 02:38:38;;;;;;;5.10;3.65;;;5.70;67.60;;;;;;5092739;28;20289;-74
2022/04/09 02:41:04;;;;;;;5.97;3.35;;;6.40;64.20;;;;;;5092322;28;20293;-74
2022/04/09 02:43:30;;;;;;;6.27;3.70;;;6.70;60.80;;;;;;5073829;28;20277;-74
2022/04/09 02:45:55;;;;;;;5.10;3.47;;;6.20;63.90;;;;;;5092543;28;20432;-74
2022/04/09 02:48:21;;;;;;;4.33;3.40;;;6.50;60.90;;;;;;5092443;28;20949;-74
2022/04/09 02:50:48;;;;;;;5.90;4.07;;;6.70;58.70;;;;;;5091413;28;20171;-77
2022/04/09 02:53:14;;;;;;;5.72;3.85;;;7.20;57.60;;;;;;5091928;28;20456;-75
2022/04/09 02:55:40;;;;;;;5.07;3.47;;;7.30;55.20;;;;;;5092477;28;20265;-75
2022/04/09 02:58:05;;;;;;;4.10;3.30;;;7.80;54.60;;;;;;5092090;28;20496;-76
2022/04/09 03:00:32;;;;;;;4.43;3.43;;;6.90;56.30;;;;;;5092143;28;20428;-76
2022/04/09 03:02:57;;;;;;;5.75;3.90;;;6.70;58.50;;;;;;5091994;28;20198;-76
2022/04/09 03:05:23;;;;;;;5.00;3.30;;;6.60;61.90;;;;;;5092350;28;20182;-74
2022/04/09 03:07:49;;;;;;;7.30;4.10;;;6.90;59.40;;;;;;5091708;28;20190;-74
2022/04/09 03:10:14;;;;;;;5.10;4.00;;;7.10;58.70;;;;;;5092147;28;20174;-73
2022/04/09 03:12:44;;;;;;;5.10;3.90;;;7.00;57.00;;;;;;5091907;28;20191;-74
2022/04/09 03:15:10;;;;;;;5.32;3.92;;;6.20;62.20;;;;;;5091518;28;20425;-74
2022/04/09 03:17:36;;;;;;;7.68;4.10;;;5.90;67.40;;;;;;5091974;28;20171;-74
2022/04/09 03:20:03;;;;;;;4.17;3.60;;;5.80;69.20;;;;;;5092308;28;20219;-76
2022/04/09 03:22:29;;;;;;;5.22;4.32;;;5.90;68.00;;;;;;5073690;28;20210;-74
2022/04/09 03:25:01;;;;;;;6.97;4.90;;;6.50;63.40;;;;;;5091503;28;20181;-73
2022/04/09 03:27:27;;;;;;;9.13;5.13;;;6.30;64.10;;;;;;5091619;28;21246;-74
2022/04/09 03:29:53;;;;;;;6.97;4.77;;;5.90;64.40;;;;;;5091876;28;20175;-74
2022/04/09 03:32:19;;;;;;;9.00;4.50;;;5.70;67.90;;;;;;5091385;28;20886;-75
2022/04/09 03:34:45;;;;;;;7.50;5.07;;;5.40;70.00;;;;;;5091597;28;20227;-75
2022/04/09 03:37:11;;;;;;;9.37;4.93;;;5.70;70.00;;;;;;5091316;28;20593;-75
2022/04/09 03:39:37;;;;;;;6.93;4.60;;;6.00;64.70;;;;;;5091697;28;20416;-73
2022/04/09 03:42:04;;;;;;;6.75;5.00;;;6.10;64.10;;;;;;5091155;28;20271;-75
2022/04/09 03:44:30;;;;;;;7.65;4.68;;;6.10;64.80;;;;;;5091290;28;20294;-74
2022/04/09 03:47:03;;;;;;;6.00;4.20;;;6.10;66.30;;;;;;5091282;28;20970;-75
2022/04/09 03:49:30;;;;;;;6.60;4.82;;;5.30;72.50;;;;;;5091593;28;20219;-74
2022/04/09 03:51:56;;;;;;;6.97;5.10;;;5.50;72.90;;;;;;5091129;28;20194;-73
2022/04/09 03:54:22;;;;;;;8.82;5.45;;;5.60;70.00;;;;;;5091538;28;20628;-74
2022/04/09 03:56:49;;;;;;;8.53;4.80;;;5.90;69.20;;;;;;5090935;28;20183;-74
2022/04/09 03:59:16;;;;;;;5.95;4.55;;;5.90;67.80;;;;;;5091293;28;20428;-74
2022/04/09 04:01:44;;;;;;;6.03;4.55;;;5.90;68.60;;;;;;5094608;28;20293;-76
2022/04/09 04:04:10;;;;;;;6.38;4.20;;;6.20;67.90;;;;;;5098131;28;20250;-75
2022/04/09 04:06:36;;;;;;;6.85;4.70;;;5.70;68.80;;;;;;5097890;28;20205;-74
2022/04/09 04:09:02;;;;;;;6.57;4.30;;;6.30;67.70;;;;;;5097543;28;20182;-74
2022/04/09 04:11:28;;;;;;;6.70;4.47;;;6.30;64.70;;;;;;5097982;28;20424;-74
2022/04/09 04:13:54;;;;;;;7.73;4.93;;;5.80;68.00;;;;;;5097753;28;20524;-75
2022/04/09 04:16:19;;;;;;;6.97;4.97;;;6.10;65.70;;;;;;5097919;28;20189;-76
2022/04/09 04:18:45;;;;;;;5.77;4.50;;;6.40;64.30;;;;;;5097540;28;20182;-74
2022/04/09 04:21:11;;;;;;;15.30;4.50;;;6.20;66.40;;;;;;5097636;28;20218;-74
2022/04/09 04:23:37;;;;;;;5.85;4.40;;;5.90;66.80;;;;;;5097565;28;20384;-76
2022/04/09 04:26:03;;;;;;;7.53;4.33;;;6.20;68.50;;;;;;5097866;28;20655;-74
2022/04/09 04:28:29;;;;;;;7.90;4.77;;;6.30;63.10;;;;;;5097638;28;20194;-74
2022/04/09 04:30:55;;;;;;;7.60;4.63;;;5.80;68.20;;;;;;5097650;28;20202;-74
2022/04/09 04:33:21;;;;;;;6.70;4.78;;;6.00;67.60;;;;;;5098009;28;20223;-74
2022/04/09 04:35:47;;;;;;;6.70;4.70;;;6.20;67.30;;;;;;5097406;28;20174;-74
2022/04/09 04:38:12;;;;;;;8.47;4.40;;;5.60;70.50;;;;;;5097658;28;20707;-73
2022/04/09 04:40:38;;;;;;;9.37;4.67;;;5.70;70.70;;;;;;5097632;28;20183;-75
2022/04/09 04:43:04;;;;;;;6.17;4.60;;;5.80;70.40;;;;;;5097526;28;20277;-74
2022/04/09 04:45:30;;;;;;;9.67;5.53;;;6.10;67.40;;;;;;5097604;28;20423;-75
2022/04/09 04:47:56;;;;;;;7.00;4.50;;;5.60;72.70;;;;;;5097583;28;20456;-74
2022/04/09 04:50:22;;;;;;;5.53;4.43;;;5.60;73.80;;;;;;5097265;28;20177;-76
2022/04/09 04:52:48;;;;;;;6.72;5.00;;;5.80;74.20;;;;;;5097347;28;20604;-74
2022/04/09 04:55:14;;;;;;;6.63;4.67;;;5.70;72.30;;;;;;5097333;28;20167;-74
2022/04/09 04:57:47;;;;;;;5.88;4.70;;;6.00;71.00;;;;;;5097748;28;20174;-75
2022/04/09 05:00:18;;;;;;;7.50;5.10;;;6.30;65.80;;;;;;5097378;28;20182;-74
2022/04/09 05:02:44;;;;;;;7.85;5.13;;;6.00;68.50;;;;;;5096159;28;20243;-74
2022/04/09 05:05:10;;;;;;;10.27;5.93;;;6.30;68.80;;;;;;5097112;28;20196;-75
2022/04/09 05:07:46;;;;;;;6.73;5.27;;;6.10;68.40;;;;;;5097619;28;20194;-75
2022/04/09 05:10:15;;;;;;;8.43;6.13;;;6.10;67.80;;;;;;5097111;28;20174;-76
2022/04/09 05:12:42;;;;;;;10.13;7.07;;;6.10;68.70;;;;;;5094838;28;20225;-76
2022/04/09 05:15:09;;;;;;;11.95;8.18;;;6.20;63.90;;;;;;5075995;28;20171;-75
2022/04/09 05:17:35;;;;;;;17.17;8.05;;;5.30;69.10;;;;;;5094186;28;20643;-75
2022/04/09 05:20:03;;;;;;;12.48;8.43;;;5.20;74.60;;;;;;5094246;28;20223;-76
2022/04/09 05:22:30;;;;;;;13.27;9.30;;;5.70;70.50;;;;;;5093590;28;20293;-75
2022/04/09 05:24:56;;;;;;;13.63;9.30;;;5.70;73.00;;;;;;5093736;28;20174;-74
2022/04/09 05:27:22;;;;;;;19.58;10.18;;;6.20;68.40;;;;;;5075702;28;20210;-76
2022/04/09 05:29:48;;;;;;;14.82;9.70;;;6.30;64.70;;;;;;5093589;28;20186;-75
2022/04/09 05:32:13;;;;;;;19.80;11.90;;;6.00;66.30;;;;;;5093762;28;20243;-75
2022/04/09 05:34:39;;;;;;;24.67;12.30;;;5.90;64.90;;;;;;5093735;28;20644;-74
2022/04/09 05:37:05;;;;;;;21.50;12.60;;;5.70;64.60;;;;;;5075685;28;20409;-75
2022/04/09 05:39:31;;;;;;;24.17;13.75;;;5.50;66.50;;;;;;5093514;28;20190;-75
2022/04/09 05:41:57;;;;;;;26.07;13.40;;;5.80;67.00;;;;;;5075414;28;20624;-75
2022/04/09 05:44:22;;;;;;;20.60;13.00;;;5.70;66.10;;;;;;5093237;28;20435;-75
2022/04/09 05:46:48;;;;;;;20.03;12.30;;;6.00;63.20;;;;;;5093699;28;20176;-76
2022/04/09 05:49:13;;;;;;;21.87;12.90;;;6.30;61.20;;;;;;5093420;28;20190;-75
2022/04/09 05:51:39;;;;;;;21.30;13.10;;;6.40;61.90;;;;;;5093533;28;20604;-76
2022/04/09 05:54:05;;;;;;;18.90;13.10;;;6.70;60.90;;;;;;5092948;28;20190;-76
2022/04/09 05:56:31;;;;;;;26.03;13.77;;;6.00;62.90;;;;;;5075511;28;20210;-74
2022/04/09 05:58:56;;;;;;;23.83;13.27;;;6.40;61.30;;;;;;5096587;28;20416;-71
2022/04/09 06:01:22;;;;;;;20.77;14.00;;;6.80;59.80;;;;;;5092968;28;20433;-73
2022/04/09 06:03:48;;;;;;;18.93;13.90;;;6.70;59.90;;;;;;5093267;28;20258;-74
2022/04/09 06:06:13;;;;;;;22.63;13.40;;;6.30;60.90;;;;;;5093279;28;20190;-73
2022/04/09 06:08:39;;;;;;;19.67;13.63;;;6.30;60.70;;;;;;5093211;28;20599;-73
2022/04/09 06:11:05;;;;;;;22.07;15.13;;;6.30;61.20;;;;;;5074776;28;20197;-72
2022/04/09 06:13:31;;;;;;;22.37;14.27;;;6.00;62.80;;;;;;5092996;28;20166;-74
2022/04/09 06:15:57;;;;;;;20.65;12.52;;;5.90;63.50;;;;;;5086529;28;20476;-76
2022/04/09 06:18:22;;;;;;;23.73;13.73;;;5.70;62.90;;;;;;5088635;28;20221;-77
2022/04/09 06:20:49;;;;;;;20.10;14.50;;;5.60;63.00;;;;;;5105689;28;20256;-77
2022/04/09 06:23:14;;;;;;;20.25;13.50;;;5.70;64.10;;;;;;5092787;28;20195;-75
2022/04/09 06:25:40;;;;;;;26.03;14.63;;;6.30;61.00;;;;;;5092767;28;20185;-76
2022/04/09 06:28:07;;;;;;;22.63;13.37;;;6.80;57.80;;;;;;5092913;28;20206;-76
2022/04/09 06:30:32;;;;;;;22.88;14.95;;;7.20;56.40;;;;;;5074689;28;20189;-76
2022/04/09 06:32:58;;;;;;;25.60;14.33;;;8.00;51.50;;;;;;5092685;28;20194;-76
2022/04/09 06:35:25;;;;;;;29.63;14.97;;;7.30;52.80;;;;;;5090291;28;20180;-75
2022/04/09 06:37:50;;;;;;;25.75;15.40;;;7.20;51.30;;;;;;5081226;28;20632;-76
2022/04/09 06:40:17;;;;;;;27.97;15.80;;;7.20;54.50;;;;;;5093343;28;20187;-76
2022/04/09 06:42:42;;;;;;;30.20;15.95;;;7.30;54.00;;;;;;5092160;28;22059;-76
2022/04/09 06:45:09;;;;;;;27.87;14.83;;;7.40;54.40;;;;;;5089000;28;20191;-75
2022/04/09 06:47:37;;;;;;;20.38;13.20;;;7.70;51.00;;;;;;5093516;28;20293;-75
2022/04/09 06:50:06;;;;;;;28.83;13.48;;;7.80;52.20;;;;;;5093749;28;20206;-75
2022/04/09 06:52:32;;;;;;;23.77;14.15;;;7.40;53.40;;;;;;5092008;28;20239;-75
2022/04/09 06:54:58;;;;;;;24.70;13.13;;;7.30;52.10;;;;;;5092431;28;20182;-76
2022/04/09 06:57:24;;;;;;;18.45;13.07;;;7.80;51.10;;;;;;5092336;28;20179;-73
2022/04/09 06:59:49;;;;;;;20.43;11.80;;;8.00;51.00;;;;;;5092213;28;20185;-75
2022/04/09 07:02:15;;;;;;;18.23;12.20;;;8.00;49.10;;;;;;5092580;28;20194;-75
2022/04/09 07:04:41;;;;;;;19.73;12.10;;;8.20;49.50;;;;;;5092785;28;20179;-76
2022/04/09 07:07:06;;;;;;;16.10;10.13;;;7.90;52.70;;;;;;5107570;28;20233;-75
2022/04/09 07:09:32;;;;;;;15.20;10.23;;;8.50;44.90;;;;;;5092104;28;20174;-76
2022/04/09 07:11:57;;;;;;;19.83;10.50;;;8.50;45.10;;;;;;5085348;28;20678;-76
2022/04/09 07:14:23;;;;;;;16.37;10.57;;;8.00;46.50;;;;;;5091788;28;20174;-75
2022/04/09 07:16:49;;;;;;;16.47;9.67;;;7.30;48.30;;;;;;5091605;28;20170;-75
2022/04/09 07:19:14;;;;;;;27.03;10.27;;;7.70;46.80;;;;;;5091969;28;20631;-74
2022/04/09 07:21:40;;;;;;;14.90;9.57;;;7.90;46.90;;;;;;5093233;28;20254;-78
2022/04/09 07:24:07;;;;;;;27.77;10.13;;;7.70;47.60;;;;;;5091852;28;20666;-74
2022/04/09 07:26:33;;;;;;;13.93;8.82;;;7.70;48.70;;;;;;5093176;28;20167;-72
2022/04/09 07:28:59;;;;;;;12.83;9.20;;;7.00;52.50;;;;;;5092624;28;20214;-73
2022/04/09 07:31:24;;;;;;;16.40;9.77;;;7.50;52.70;;;;;;5092979;28;20213;-73
2022/04/09 07:33:50;;;;;;;19.10;10.50;;;7.40;54.30;;;;;;5077624;28;20179;-74
2022/04/09 07:36:16;;;;;;;12.87;8.40;;;8.10;52.60;;;;;;5093589;28;20220;-74
2022/04/09 07:38:41;;;;;;;13.00;8.27;;;7.70;49.60;;;;;;5075714;28;20210;-73
2022/04/09 07:41:07;;;;;;;19.23;6.90;;;8.20;47.30;;;;;;5096096;28;20764;-76
2022/04/09 07:43:32;;;;;;;10.27;6.97;;;6.90;46.90;;;;;;5096490;28;20262;-76
2022/04/09 07:45:58;;;;;;;19.80;7.03;;;7.00;47.80;;;;;;5098222;28;20198;-77
2022/04/09 07:48:24;;;;;;;12.70;7.50;;;6.90;50.20;;;;;;5077068;28;20672;-76
2022/04/09 07:50:49;;;;;;;15.80;7.80;;;6.80;49.70;;;;;;5082770;28;20208;-75
2022/04/09 07:53:15;;;;;;;15.63;7.00;;;7.60;48.80;;;;;;5085987;28;20175;-76
2022/04/09 07:55:41;;;;;;;13.73;7.00;;;8.30;45.60;;;;;;5104741;28;20201;-76
2022/04/09 07:58:08;;;;;;;12.03;6.97;;;7.50;47.40;;;;;;5094173;28;20193;-76
2022/04/09 08:00:34;;;;;;;13.85;7.30;;;7.10;47.50;;;;;;5096956;28;20215;-74
2022/04/09 08:03:00;;;;;;;13.57;7.35;;;7.00;49.10;;;;;;5106203;28;20200;-74
2022/04/09 08:05:26;;;;;;;12.73;7.33;;;7.10;48.30;;;;;;5083552;28;20191;-75
2022/04/09 08:07:51;;;;;;;15.57;6.67;;;7.60;47.50;;;;;;5104429;28;20281;-75
2022/04/09 08:10:18;;;;;;;12.77;6.40;;;7.20;47.90;;;;;;5079096;28;20170;-76
2022/04/09 08:12:48;;;;;;;18.55;6.38;;;7.60;49.00;;;;;;5101699;28;20501;-75
2022/04/09 08:15:14;;;;;;;11.52;5.53;;;7.00;48.40;;;;;;5101701;28;20201;-76
2022/04/09 08:17:40;;;;;;;10.70;4.93;;;7.20;44.40;;;;;;5086171;28;20200;-76
2022/04/09 08:20:07;;;;;;;12.55;5.43;;;6.60;45.10;;;;;;5101232;28;20182;-75
2022/04/09 08:22:33;;;;;;;13.27;5.60;;;7.00;46.10;;;;;;5097907;28;20210;-74
2022/04/09 08:24:59;;;;;;;13.30;5.90;;;7.40;42.20;;;;;;5098802;28;20313;-75
2022/04/09 08:27:24;;;;;;;19.50;5.93;;;6.50;46.50;;;;;;5100049;28;20275;-74
2022/04/09 08:29:50;;;;;;;9.07;5.80;;;6.20;44.60;;;;;;5094052;28;20421;-77
2022/04/09 08:32:16;;;;;;;9.23;5.30;;;6.90;47.20;;;;;;5094956;28;20202;-75
2022/04/09 08:34:41;;;;;;;13.80;5.80;;;7.10;42.80;;;;;;5075206;28;20652;-71
2022/04/09 08:37:07;;;;;;;20.83;6.30;;;6.60;45.10;;;;;;5096641;28;20183;-73
2022/04/09 08:39:34;;;;;;;17.40;6.87;;;6.60;44.30;;;;;;5091615;28;20202;-73
2022/04/09 08:42:01;;;;;;;8.95;5.50;;;6.50;45.40;;;;;;5095218;28;20199;-72
2022/04/09 08:44:30;;;;;;;13.25;6.70;;;6.70;43.00;;;;;;5091793;28;20179;-76
2022/04/09 08:46:56;;;;;;;9.82;5.68;;;6.80;43.60;;;;;;5095880;28;20652;-77
2022/04/09 08:49:24;;;;;;;12.85;5.47;;;6.60;43.60;;;;;;5097667;28;20206;-77
2022/04/09 08:51:50;;;;;;;8.00;5.65;;;6.80;43.00;;;;;;5072564;28;20192;-76
2022/04/09 08:54:18;;;;;;;12.45;5.22;;;7.10;42.40;;;;;;5072588;28;20250;-76
2022/04/09 08:56:43;;;;;;;15.13;5.70;;;7.10;41.30;;;;;;5099214;28;20175;-76
2022/04/09 08:59:09;;;;;;;16.37;5.50;;;7.70;41.80;;;;;;5108180;28;20179;-74
2022/04/09 09:01:35;;;;;;;12.57;5.77;;;8.60;39.60;;;;;;5097971;28;20203;-76
2022/04/09 09:04:01;;;;;;;12.63;5.23;;;8.00;37.50;;;;;;5090721;28;20929;-76
2022/04/09 09:06:30;;;;;;;15.55;6.05;;;8.10;38.20;;;;;;5094378;28;20670;-76
2022/04/09 09:08:57;;;;;;;16.30;5.20;;;8.70;37.40;;;;;;5094510;28;20762;-75
2022/04/09 09:11:24;;;;;;;13.90;5.55;;;9.10;36.10;;;;;;5076193;28;20204;-76
2022/04/09 09:13:52;;;;;;;7.38;4.95;;;8.50;36.10;;;;;;5094365;28;20575;-76
2022/04/09 09:16:31;;;;;;;9.88;5.35;;;8.80;36.30;;;;;;5094298;28;20177;-75
2022/04/09 09:19:09;;;;;;;11.75;5.68;;;8.20;38.90;;;;;;5094256;28;20196;-76
2022/04/09 09:21:34;;;;;;;11.55;5.30;;;7.80;39.60;;;;;;5067792;28;20273;-75
2022/04/09 09:24:09;;;;;;;11.77;5.80;;;7.50;40.00;;;;;;5093904;28;20202;-75
2022/04/09 09:26:38;;;;;;;10.55;5.35;;;7.00;38.90;;;;;;5094002;28;20181;-75
2022/04/09 09:29:04;;;;;;;16.77;6.18;;;7.30;40.90;;;;;;5093744;28;20195;-76
2022/04/09 09:31:39;;;;;;;18.33;6.10;;;7.70;40.80;;;;;;5093690;28;20196;-76
2022/04/09 09:34:19;;;;;;;13.10;6.40;;;7.80;40.50;;;;;;5093850;28;21029;-76
2022/04/09 09:36:44;;;;;;;13.30;5.65;;;7.70;40.90;;;;;;5086476;28;20168;-76
2022/04/09 09:39:12;;;;;;;11.63;5.90;;;8.20;39.00;;;;;;5093717;28;20207;-75
2022/04/09 09:41:54;;;;;;;14.43;6.65;;;8.40;39.50;;;;;;5093135;28;20783;-76
2022/04/09 09:44:22;;;;;;;16.33;5.68;;;9.00;37.90;;;;;;5093331;28;20193;-76
2022/04/09 09:46:50;;;;;;;12.93;4.90;;;9.40;35.20;;;;;;5094707;28;20731;-74
2022/04/09 09:49:22;;;;;;;11.13;4.87;;;8.40;36.30;;;;;;5096136;28;20213;-76
2022/04/09 09:52:09;;;;;;;13.13;4.25;;;8.20;36.50;;;;;;5092939;28;21035;-76
2022/04/09 09:54:53;;;;;;;10.38;4.70;;;8.40;35.10;;;;;;5088882;28;20179;-75
2022/04/09 09:57:20;;;;;;;13.02;5.15;;;8.00;37.30;;;;;;5090743;28;20210;-75
2022/04/09 09:59:47;;;;;;;12.85;5.10;;;7.90;37.90;;;;;;5086781;28;20184;-72
2022/04/09 10:02:17;;;;;;;8.82;4.47;;;8.30;36.10;;;;;;5091355;28;20707;-75
2022/04/09 10:04:44;;;;;;;14.90;4.55;;;9.10;34.10;;;;;;5093346;28;20207;-75
2022/04/09 10:07:10;;;;;;;9.03;4.43;;;9.20;32.60;;;;;;5093606;28;20285;-74
2022/04/09 10:09:36;;;;;;;5.83;3.77;;;9.90;32.70;;;;;;5093744;28;20921;-76
2022/04/09 10:12:05;;;;;;;12.43;4.13;;;10.90;28.70;;;;;;5093156;28;20444;-74
2022/04/09 10:14:32;;;;;;;11.60;4.70;;;11.10;28.50;;;;;;5108273;28;20220;-77
2022/04/09 10:17:00;;;;;;;14.87;4.90;;;9.60;30.60;;;;;;5092886;28;20450;-77
2022/04/09 10:19:27;;;;;;;17.07;5.27;;;8.40;33.30;;;;;;5095035;28;20421;-72
2022/04/09 10:21:53;;;;;;;11.70;4.53;;;8.50;36.00;;;;;;5093131;28;20555;-76
2022/04/09 10:24:25;;;;;;;13.05;4.35;;;8.40;35.00;;;;;;5092736;28;20420;-74
2022/04/09 10:26:53;;;;;;;12.70;5.10;;;7.90;38.70;;;;;;5092263;28;20204;-76
2022/04/09 10:29:19;;;;;;;10.07;4.50;;;8.10;38.10;;;;;;5092657;28;20197;-75
2022/04/09 10:31:51;;;;;;;21.83;5.33;;;8.20;37.10;;;;;;5092124;28;20698;-75
2022/04/09 10:34:17;;;;;;;13.70;5.30;;;8.20;37.80;;;;;;5092413;28;20200;-76
2022/04/09 10:36:43;;;;;;;15.57;4.72;;;7.90;37.20;;;;;;5092510;28;20206;-76
2022/04/09 10:39:45;;;;;;;10.20;4.57;;;8.70;37.00;;;;;;5092414;28;20209;-75
2022/04/09 10:42:31;;;;;;;11.70;5.05;;;8.70;33.60;;;;;;5073675;28;20201;-76
2022/04/09 10:44:56;;;;;;;9.45;3.58;;;8.40;33.10;;;;;;5083884;28;20182;-73
2022/04/09 10:47:22;;;;;;;11.33;4.40;;;8.30;31.90;;;;;;5092089;28;20217;-73
2022/04/09 10:50:14;;;;;;;16.73;4.60;;;8.50;33.30;;;;;;5092032;28;20175;-76
2022/04/09 10:52:39;;;;;;;8.20;3.87;;;9.80;30.30;;;;;;5086921;28;20629;-76
2022/04/09 10:55:30;;;;;;;10.80;3.97;;;6.30;28.60;;;;;;5091686;28;20424;-75
2022/04/09 10:58:01;;;;;;;16.27;4.30;;;9.10;30.90;;;;;;5091916;28;20235;-75
2022/04/09 11:00:31;;;;;;;12.93;4.20;;;8.50;32.00;;;;;;5091742;28;20420;-76
2022/04/09 11:03:28;;;;;;;8.60;4.07;;;8.90;31.50;;;;;;5092463;28;20812;-76
2022/04/09 11:06:32;;;;;;;13.87;4.67;;;9.70;31.00;;;;;;5073822;28;20425;-75
2022/04/09 11:08:58;;;;;;;8.97;4.27;;;10.60;28.50;;;;;;5091501;28;20518;-76
2022/04/09 11:11:28;;;;;;;7.90;3.80;;;10.80;28.40;;;;;;5091231;28;20810;-77
2022/04/09 11:13:54;;;;;;;12.90;4.23;;;10.40;28.90;;;;;;5091908;28;20985;-76
2022/04/09 11:16:20;;;;;;;10.70;4.93;;;9.20;30.20;;;;;;5091670;28;20507;-76
2022/04/09 11:18:47;;;;;;;9.53;4.53;;;8.80;32.30;;;;;;5091781;28;20202;-77
2022/04/09 11:21:13;;;;;;;9.70;4.03;;;8.20;35.60;;;;;;5091739;28;20547;-72
2022/04/09 11:23:39;;;;;;;7.73;4.20;;;8.40;32.50;;;;;;5091783;28;20421;-74
2022/04/09 11:26:04;;;;;;;11.43;4.20;;;8.70;31.70;;;;;;5091482;28;20526;-72
2022/04/09 11:28:38;;;;;;;13.83;4.30;;;8.90;31.30;;;;;;5091915;28;20452;-74
2022/04/09 11:31:06;;;;;;;12.73;4.27;;;8.60;32.10;;;;;;5091660;28;20155;-73
2022/04/09 11:33:32;;;;;;;19.60;5.90;;;8.90;32.40;;;;;;5090820;28;20908;-76
2022/04/09 11:36:01;;;;;;;17.60;8.90;;;9.70;31.40;;;;;;5091647;28;20470;-77
2022/04/09 11:38:28;;;;;;;10.20;4.20;;;10.50;28.90;;;;;;5091533;28;20193;-75
2022/04/09 11:40:55;;;;;;;14.73;5.00;;;9.70;29.80;;;;;;5091583;28;20511;-77
2022/04/09 11:43:22;;;;;;;6.80;4.40;;;9.00;29.80;;;;;;5091642;28;20784;-78
2022/04/09 11:45:48;;;;;;;9.17;3.90;;;9.20;29.20;;;;;;5091805;28;20420;-77
2022/04/09 11:48:18;;;;;;;8.97;3.67;;;10.20;27.60;;;;;;5091879;28;20452;-76
2022/04/09 11:50:45;;;;;;;6.13;3.60;;;11.80;23.40;;;;;;5097587;28;20431;-77
2022/04/09 11:53:12;;;;;;;18.40;4.60;;;12.30;22.70;;;;;;5074234;28;20448;-77
2022/04/09 11:55:42;;;;;;;8.53;3.67;;;11.70;24.10;;;;;;5089129;28;20566;-76
2022/04/09 11:58:08;;;;;;;8.37;3.70;;;10.70;24.00;;;;;;5094204;28;20434;-75
2022/04/09 12:00:41;;;;;;;8.87;4.00;;;10.20;25.00;;;;;;5084039;28;20513;-76
2022/04/09 12:03:07;;;;;;;7.80;3.90;;;9.80;26.40;;;;;;5092868;28;20454;-76
2022/04/09 12:05:39;;;;;;;7.03;3.60;;;9.40;26.30;;;;;;5090838;28;20439;-76
2022/04/09 12:08:13;;;;;;;9.80;3.60;;;10.20;23.40;;;;;;5091536;28;21046;-76
2022/04/09 12:10:52;;;;;;;9.60;4.20;;;10.30;25.00;;;;;;5091265;28;20431;-76
2022/04/09 12:13:27;;;;;;;9.40;4.60;;;9.30;28.10;;;;;;5090863;28;20428;-77
2022/04/09 12:15:53;;;;;;;13.50;4.07;;;10.20;28.70;;;;;;5091098;28;20412;-77
2022/04/09 12:18:34;;;;;;;11.67;4.17;;;10.00;23.90;;;;;;5090925;28;20432;-77
2022/04/09 12:21:23;;;;;;;6.07;3.40;;;9.40;26.30;;;;;;5072792;28;20429;-75
2022/04/09 12:24:02;;;;;;;8.67;4.50;;;10.20;24.30;;;;;;5088156;28;20420;-76
2022/04/09 12:26:29;;;;;;;17.27;3.77;;;10.20;25.10;;;;;;5094788;28;20485;-78
2022/04/09 12:29:16;;;;;;;7.97;3.77;;;11.20;25.20;;;;;;5092022;28;20474;-77
2022/04/09 12:31:43;;;;;;;6.27;3.63;;;11.00;23.40;;;;;;5088960;28;20472;-77
2022/04/09 12:34:10;;;;;;;11.23;3.60;;;10.40;24.10;;;;;;5099791;28;20416;-75
2022/04/09 12:36:40;;;;;;;11.40;4.13;;;10.20;24.00;;;;;;5104211;28;20448;-77
2022/04/09 12:39:24;;;;;;;9.00;4.57;;;11.10;22.90;;;;;;5104393;28;20936;-79
2022/04/09 12:41:50;;;;;;;7.73;3.50;;;12.60;22.20;;;;;;5098266;28;20910;-77
2022/04/09 12:44:26;;;;;;;14.97;3.90;;;10.80;23.30;;;;;;5097261;28;20430;-76
2022/04/09 12:46:53;;;;;;;6.67;3.47;;;10.60;23.90;;;;;;5088541;28;20199;-77
2022/04/09 12:49:29;;;;;;;9.80;3.67;;;10.90;24.30;;;;;;5095765;28;20433;-76
2022/04/09 12:51:55;;;;;;;13.97;4.70;;;12.20;20.40;;;;;;5099343;28;20440;-75
2022/04/09 12:54:21;;;;;;;10.20;3.63;;;10.80;21.80;;;;;;5101274;28;20423;-76
2022/04/09 12:56:47;;;;;;;7.37;3.30;;;9.40;25.40;;;;;;5095740;28;20425;-75